Time;durP1;ratioP1;P1;durP2;ratioP2;P2;SDS_P1;SDS_P2;PMS_P1;PMS_P2;Temp;Humidity;BMP_temperature;BMP_pressure;BME280_temperature;BME280_humidity;BME280_pressure;Samples;Min_cycle;Max_cycle;Signal;HPM_P1;HPM_P2
2019/10/04 00:00:29;;;;;;;7;4;;;;;;;;;;;;;
2019/10/04 00:05:29;;;;;;;5.1;3.9;;;;;;;;;;;;;
2019/10/04 00:07:43;;;;;;;6;4;;;;;;;;;;;;;
2019/10/04 00:10:08;;;;;;;5;3.9;;;;;;;;;;;;;
2019/10/04 00:12:33;;;;;;;6.5;4.1;;;;;;;;;;;;;
2019/10/04 00:14:58;;;;;;;5.4;4.2;;;;;;;;;;;;;
2019/10/04 00:17:23;;;;;;;5.7;4.4;;;;;;;;;;;;;
2019/10/04 00:19:48;;;;;;;5.9;4.1;;;;;;;;;;;;;
2019/10/04 00:22:13;;;;;;;7.2;4.1;;;;;;;;;;;;;
2019/10/04 00:24:38;;;;;;;7.4;4.7;;;;;;;;;;;;;
2019/10/04 00:27:04;;;;;;;5.4;4;;;;;;;;;;;;;
2019/10/04 00:29:29;;;;;;;6.1;4.5;;;;;;;;;;;;;
2019/10/04 00:31:54;;;;;;;5.8;4.7;;;;;;;;;;;;;
2019/10/04 00:34:19;;;;;;;6.2;4;;;;;;;;;;;;;
2019/10/04 00:36:44;;;;;;;4.7;4;;;;;;;;;;;;;
2019/10/04 00:39:12;;;;;;;5.9;4.4;;;;;;;;;;;;;
2019/10/04 00:41:34;;;;;;;5.7;4.2;;;;;;;;;;;;;
2019/10/04 00:43:59;;;;;;;5.6;4.1;;;;;;;;;;;;;
2019/10/04 00:46:24;;;;;;;5.6;4.2;;;;;;;;;;;;;
2019/10/04 00:48:49;;;;;;;6.3;4.4;;;;;;;;;;;;;
2019/10/04 00:51:14;;;;;;;6;4.1;;;;;;;;;;;;;
2019/10/04 00:53:40;;;;;;;6.4;4;;;;;;;;;;;;;
2019/10/04 00:56:05;;;;;;;6.4;4.4;;;;;;;;;;;;;
2019/10/04 00:58:30;;;;;;;5.4;4.2;;;;;;;;;;;;;
2019/10/04 01:00:58;;;;;;;7.1;4.1;;;;;;;;;;;;;
2019/10/04 01:03:23;;;;;;;4.9;4.2;;;;;;;;;;;;;
2019/10/04 01:05:48;;;;;;;6.4;4.3;;;;;;;;;;;;;
2019/10/04 01:08:13;;;;;;;6.2;3.9;;;;;;;;;;;;;
2019/10/04 01:10:38;;;;;;;5.7;4.3;;;;;;;;;;;;;
2019/10/04 01:13:03;;;;;;;5.8;3.8;;;;;;;;;;;;;
2019/10/04 01:15:28;;;;;;;5.7;4.1;;;;;;;;;;;;;
2019/10/04 01:17:53;;;;;;;7.4;4.4;;;;;;;;;;;;;
2019/10/04 01:20:18;;;;;;;5.6;3.9;;;;;;;;;;;;;
2019/10/04 01:22:44;;;;;;;5.6;4.2;;;;;;;;;;;;;
2019/10/04 01:25:09;;;;;;;4.8;4;;;;;;;;;;;;;
2019/10/04 01:27:34;;;;;;;5.2;4.2;;;;;;;;;;;;;
2019/10/04 01:29:59;;;;;;;4.7;4.1;;;;;;;;;;;;;
2019/10/04 01:32:24;;;;;;;5.6;4.1;;;;;;;;;;;;;
2019/10/04 01:34:49;;;;;;;6.7;4;;;;;;;;;;;;;
2019/10/04 01:37:14;;;;;;;5.3;4;;;;;;;;;;;;;
2019/10/04 01:39:39;;;;;;;5.6;4;;;;;;;;;;;;;
2019/10/04 01:42:04;;;;;;;5.2;4;;;;;;;;;;;;;
2019/10/04 01:44:30;;;;;;;5;3.9;;;;;;;;;;;;;
2019/10/04 01:46:55;;;;;;;5.5;4.2;;;;;;;;;;;;;
2019/10/04 01:49:20;;;;;;;5.1;4;;;;;;;;;;;;;
2019/10/04 01:51:45;;;;;;;6.4;4.2;;;;;;;;;;;;;
2019/10/04 01:54:10;;;;;;;4.9;4.2;;;;;;;;;;;;;
2019/10/04 01:56:35;;;;;;;5.5;4.2;;;;;;;;;;;;;
2019/10/04 01:59:00;;;;;;;5.5;4;;;;;;;;;;;;;
2019/10/04 02:01:26;;;;;;;4.7;3.9;;;;;;;;;;;;;
2019/10/04 02:03:51;;;;;;;5.7;4;;;;;;;;;;;;;
2019/10/04 02:06:17;;;;;;;4.5;3.8;;;;;;;;;;;;;
2019/10/04 02:08:41;;;;;;;7;4;;;;;;;;;;;;;
2019/10/04 02:11:06;;;;;;;5.6;4.3;;;;;;;;;;;;;
2019/10/04 02:13:31;;;;;;;5.9;4.3;;;;;;;;;;;;;
2019/10/04 02:15:56;;;;;;;5.1;4.3;;;;;;;;;;;;;
2019/10/04 02:18:21;;;;;;;4.4;3.9;;;;;;;;;;;;;
2019/10/04 02:20:46;;;;;;;5.6;3.9;;;;;;;;;;;;;
2019/10/04 02:23:12;;;;;;;5.5;4.2;;;;;;;;;;;;;
2019/10/04 02:25:37;;;;;;;8;4.3;;;;;;;;;;;;;
2019/10/04 02:28:02;;;;;;;4.7;3.9;;;;;;;;;;;;;
2019/10/04 02:30:27;;;;;;;5.6;4;;;;;;;;;;;;;
2019/10/04 02:32:52;;;;;;;6.2;3.9;;;;;;;;;;;;;
2019/10/04 02:35:17;;;;;;;5.5;4.2;;;;;;;;;;;;;
2019/10/04 02:37:42;;;;;;;5.1;4.1;;;;;;;;;;;;;
2019/10/04 02:40:07;;;;;;;8;4.6;;;;;;;;;;;;;
2019/10/04 02:42:32;;;;;;;6;4.2;;;;;;;;;;;;;
2019/10/04 02:44:57;;;;;;;5.8;4.1;;;;;;;;;;;;;
2019/10/04 02:47:23;;;;;;;4.5;4.1;;;;;;;;;;;;;
2019/10/04 02:49:48;;;;;;;5.9;4.3;;;;;;;;;;;;;
2019/10/04 02:52:13;;;;;;;4.3;3.9;;;;;;;;;;;;;
2019/10/04 02:54:38;;;;;;;5;3.8;;;;;;;;;;;;;
2019/10/04 02:57:03;;;;;;;4.8;3.9;;;;;;;;;;;;;
2019/10/04 02:59:28;;;;;;;5.3;3.8;;;;;;;;;;;;;
2019/10/04 03:01:53;;;;;;;6.1;4;;;;;;;;;;;;;
2019/10/04 03:04:18;;;;;;;5.5;3.7;;;;;;;;;;;;;
2019/10/04 03:06:43;;;;;;;5;3.4;;;;;;;;;;;;;
2019/10/04 03:09:10;;;;;;;5.2;3.8;;;;;;;;;;;;;
2019/10/04 03:11:34;;;;;;;4.2;3.5;;;;;;;;;;;;;
2019/10/04 03:13:59;;;;;;;4.9;3.6;;;;;;;;;;;;;
2019/10/04 03:16:24;;;;;;;5.3;3.7;;;;;;;;;;;;;
2019/10/04 03:18:49;;;;;;;5.2;3.8;;;;;;;;;;;;;
2019/10/04 03:21:14;;;;;;;4.6;3.8;;;;;;;;;;;;;
2019/10/04 03:23:39;;;;;;;4.6;3.4;;;;;;;;;;;;;
2019/10/04 03:26:04;;;;;;;5.9;3.6;;;;;;;;;;;;;
2019/10/04 03:28:29;;;;;;;3.9;3.5;;;;;;;;;;;;;
2019/10/04 03:31:03;;;;;;;4.4;3.5;;;;;;;;;;;;;
2019/10/04 03:33:28;;;;;;;6.1;3.7;;;;;;;;;;;;;
2019/10/04 03:35:53;;;;;;;5.2;3.3;;;;;;;;;;;;;
2019/10/04 03:38:18;;;;;;;4.9;3.4;;;;;;;;;;;;;
2019/10/04 03:43:08;;;;;;;4.4;3.4;;;;;;;;;;;;;
2019/10/04 03:45:33;;;;;;;5.1;3.5;;;;;;;;;;;;;
2019/10/04 03:47:58;;;;;;;4.7;3.3;;;;;;;;;;;;;
2019/10/04 03:50:23;;;;;;;5.6;3.2;;;;;;;;;;;;;
2019/10/04 03:52:48;;;;;;;7;3.4;;;;;;;;;;;;;
2019/10/04 03:55:13;;;;;;;4.1;3;;;;;;;;;;;;;
2019/10/04 03:57:39;;;;;;;5.9;3.5;;;;;;;;;;;;;
2019/10/04 04:02:28;;;;;;;6.3;3.4;;;;;;;6.83;86.78223;957.9895;;;;
2019/10/04 04:04:53;;;;;;;4;3.5;;;;;;;6.84;86.66992;957.9162;;;;
2019/10/04 04:07:19;;;;;;;5.6;3.5;;;;;;;6.74;86.72754;957.9462;;;;
2019/10/04 04:09:44;;;;;;;4.6;3;;;;;;;;;;;;;
2019/10/04 04:12:09;;;;;;;4.8;3.3;;;;;;;;;;;;;
2019/10/04 04:14:34;;;;;;;4.4;2.8;;;;;;;;;;;;;
2019/10/04 04:16:59;;;;;;;4.9;3.2;;;;;;;;;;;;;
2019/10/04 04:19:24;;;;;;;3.7;2.9;;;;;;;;;;;;;
2019/10/04 04:21:49;;;;;;;3.4;2.8;;;;;;;;;;;;;
2019/10/04 04:24:14;;;;;;;4.5;3.2;;;;;;;;;;;;;
2019/10/04 04:26:39;;;;;;;3.9;2.9;;;;;;;;;;;;;
2019/10/04 04:29:04;;;;;;;6.9;3.1;;;;;;;;;;;;;
2019/10/04 04:31:29;;;;;;;4;3;;;;;;;;;;;;;
2019/10/04 04:33:54;;;;;;;5;3;;;;;;;;;;;;;
2019/10/04 04:36:19;;;;;;;5.2;3;;;;;;;;;;;;;
2019/10/04 04:38:45;;;;;;;3.9;2.9;;;;;;;;;;;;;
2019/10/04 04:41:10;;;;;;;4.7;3;;;;;;;;;;;;;
2019/10/04 04:43:35;;;;;;;5.1;2.8;;;;;;;;;;;;;
2019/10/04 04:46:00;;;;;;;3.9;2.9;;;;;;;;;;;;;
2019/10/04 04:48:25;;;;;;;4.1;3;;;;;;;;;;;;;
2019/10/04 04:50:50;;;;;;;4.3;3.1;;;;;;;;;;;;;
2019/10/04 04:53:15;;;;;;;4.5;2.8;;;;;;;;;;;;;
2019/10/04 04:55:40;;;;;;;3.1;2.8;;;;;;;;;;;;;
2019/10/04 04:58:05;;;;;;;4.8;2.8;;;;;;;;;;;;;
2019/10/04 05:00:30;;;;;;;4.2;2.8;;;;;;;;;;;;;
2019/10/04 05:02:55;;;;;;;3.4;2.8;;;;;;;;;;;;;
2019/10/04 05:05:20;;;;;;;4.6;2.8;;;;;;;;;;;;;
2019/10/04 05:07:46;;;;;;;3.3;2.9;;;;;;;;;;;;;
2019/10/04 05:10:11;;;;;;;4.2;3.1;;;;;;;;;;;;;
2019/10/04 05:12:36;;;;;;;5.3;3;;;;;;;;;;;;;
2019/10/04 05:15:01;;;;;;;4.2;2.9;;;;;;;;;;;;;
2019/10/04 05:17:26;;;;;;;4.1;3;;;;;;;;;;;;;
2019/10/04 05:19:51;;;;;;;4.6;3;;;;;;;;;;;;;
2019/10/04 05:22:16;;;;;;;4.6;2.9;;;;;;;;;;;;;
2019/10/04 05:24:41;;;;;;;4.4;2.9;;;;;;;;;;;;;
2019/10/04 05:27:06;;;;;;;5.1;3;;;;;;;;;;;;;
2019/10/04 05:29:31;;;;;;;3.3;2.8;;;;;;;;;;;;;
2019/10/04 05:31:56;;;;;;;4;3;;;;;;;;;;;;;
2019/10/04 05:34:21;;;;;;;5.4;3.3;;;;;;;;;;;;;
2019/10/04 05:36:47;;;;;;;4.5;3.1;;;;;;;;;;;;;
2019/10/04 05:39:12;;;;;;;6;3.5;;;;;;;;;;;;;
2019/10/04 05:41:37;;;;;;;4;3.4;;;;;;;;;;;;;
2019/10/04 05:44:02;;;;;;;4.6;3.4;;;;;;;;;;;;;
2019/10/04 05:46:27;;;;;;;6;3.5;;;;;;;;;;;;;
2019/10/04 05:48:52;;;;;;;7;3.1;;;;;;;;;;;;;
2019/10/04 05:51:17;;;;;;;5.9;3.8;;;;;;;;;;;;;
2019/10/04 05:53:42;;;;;;;4.4;3.8;;;;;;;;;;;;;
2019/10/04 05:56:07;;;;;;;5.8;3.8;;;;;;;;;;;;;
2019/10/04 05:58:32;;;;;;;5.1;3.8;;;;;;;;;;;;;
2019/10/04 06:00:58;;;;;;;5.5;3.8;;;;;;;;;;;;;
2019/10/04 06:03:22;;;;;;;6.2;3.9;;;;;;;;;;;;;
2019/10/04 06:05:48;;;;;;;5.6;3.8;;;;;;;;;;;;;
2019/10/04 06:08:16;;;;;;;6.2;3.8;;;;;;;;;;;;;
2019/10/04 06:10:38;;;;;;;4.3;3.3;;;;;;;;;;;;;
2019/10/04 06:13:03;;;;;;;5.1;3.4;;;;;;;;;;;;;
2019/10/04 06:15:28;;;;;;;5.5;3.5;;;;;;;;;;;;;
2019/10/04 06:17:53;;;;;;;5.8;3.4;;;;;;;;;;;;;
2019/10/04 06:20:18;;;;;;;5.4;3.7;;;;;;;;;;;;;
2019/10/04 06:22:43;;;;;;;4.7;3;;;;;;;;;;;;;
2019/10/04 06:25:09;;;;;;;4.4;3.3;;;;;;;;;;;;;
2019/10/04 06:27:34;;;;;;;5.9;3.6;;;;;;;;;;;;;
2019/10/04 06:29:59;;;;;;;6.3;3.1;;;;;;;;;;;;;
2019/10/04 06:32:25;;;;;;;4.9;3.4;;;;;;;;;;;;;
2019/10/04 06:34:50;;;;;;;4.5;3;;;;;;;;;;;;;
2019/10/04 06:37:15;;;;;;;4.9;3.1;;;;;;;;;;;;;
2019/10/04 06:39:40;;;;;;;5.1;3.3;;;;;;;;;;;;;
2019/10/04 06:42:05;;;;;;;4.8;2.8;;;;;;;;;;;;;
2019/10/04 06:44:30;;;;;;;6.6;3.1;;;;;;;;;;;;;
2019/10/04 06:46:55;;;;;;;6.4;2.9;;;;;;;;;;;;;
2019/10/04 06:49:20;;;;;;;4.2;3.2;;;;;;;;;;;;;
2019/10/04 06:51:45;;;;;;;4.6;3.2;;;;;;;;;;;;;
2019/10/04 06:54:10;;;;;;;5.2;3.3;;;;;;;;;;;;;
2019/10/04 06:56:35;;;;;;;6.3;3.3;;;;;;;;;;;;;
2019/10/04 06:59:00;;;;;;;5.4;3.2;;;;;;;;;;;;;
2019/10/04 07:01:26;;;;;;;4.7;3.4;;;;;;;;;;;;;
2019/10/04 07:03:51;;;;;;;6.3;2.9;;;;;;;;;;;;;
2019/10/04 07:06:17;;;;;;;4.7;3.1;;;;;;;;;;;;;
2019/10/04 07:08:42;;;;;;;4.8;3;;;;;;;;;;;;;
2019/10/04 07:11:07;;;;;;;4.7;3.3;;;;;;;;;;;;;
2019/10/04 07:13:32;;;;;;;6.7;3.4;;;;;;;;;;;;;
2019/10/04 07:15:57;;;;;;;6.7;3.3;;;;;;;;;;;;;
2019/10/04 07:18:22;;;;;;;4.4;3.2;;;;;;;;;;;;;
2019/10/04 07:20:47;;;;;;;6.5;3.2;;;;;;;;;;;;;
2019/10/04 07:23:12;;;;;;;4.4;3.3;;;;;;;;;;;;;
2019/10/04 07:25:38;;;;;;;7.7;3.6;;;;;;;;;;;;;
2019/10/04 07:28:03;;;;;;;7.5;3.6;;;;;;;;;;;;;
2019/10/04 07:30:28;;;;;;;5.8;3.7;;;;;;;;;;;;;
2019/10/04 07:32:53;;;;;;;6.2;3.4;;;;;;;;;;;;;
2019/10/04 07:35:18;;;;;;;7.3;3.9;;;;;;;;;;;;;
2019/10/04 07:37:43;;;;;;;5.9;3.5;;;;;;;;;;;;;
2019/10/04 07:40:08;;;;;;;5.3;3.3;;;;;;;;;;;;;
2019/10/04 07:42:33;;;;;;;4.6;3.1;;;;;;;;;;;;;
2019/10/04 07:44:59;;;;;;;5.2;3.3;;;;;;;;;;;;;
2019/10/04 07:47:24;;;;;;;4.8;3.1;;;;;;;;;;;;;
2019/10/04 07:49:49;;;;;;;5.4;3.3;;;;;;;;;;;;;
2019/10/04 07:52:14;;;;;;;5.4;3.2;;;;;;;;;;;;;
2019/10/04 07:54:39;;;;;;;4.7;3.5;;;;;;;;;;;;;
2019/10/04 07:57:04;;;;;;;6.4;3.7;;;;;;;;;;;;;
2019/10/04 07:59:29;;;;;;;7.3;3.7;;;;;;;;;;;;;
2019/10/04 08:01:54;;;;;;;6.5;3.2;;;;;;;;;;;;;
2019/10/04 08:04:19;;;;;;;4.7;3.1;;;;;;;;;;;;;
2019/10/04 08:06:45;;;;;;;4.7;3.2;;;;;;;;;;;;;
2019/10/04 08:09:10;;;;;;;6.4;3.6;;;;;;;;;;;;;
2019/10/04 08:11:35;;;;;;;8.2;3.8;;;;;;;;;;;;;
2019/10/04 08:14:00;;;;;;;8.7;3.9;;;;;;;;;;;;;
2019/10/04 08:16:25;;;;;;;5.6;3.1;;;;;;;;;;;;;
2019/10/04 08:18:50;;;;;;;6.3;3.1;;;;;;;;;;;;;
2019/10/04 08:21:15;;;;;;;6.7;3.4;;;;;;;;;;;;;
2019/10/04 08:23:40;;;;;;;4.5;3.3;;;;;;;;;;;;;
2019/10/04 08:26:05;;;;;;;4.8;3.2;;;;;;;;;;;;;
2019/10/04 08:28:30;;;;;;;5.5;3.4;;;;;;;;;;;;;
2019/10/04 08:30:56;;;;;;;5.8;3.2;;;;;;;;;;;;;
2019/10/04 08:33:21;;;;;;;4.1;3.5;;;;;;;;;;;;;
2019/10/04 08:35:46;;;;;;;6.4;3.6;;;;;;;;;;;;;
2019/10/04 08:38:11;;;;;;;5.3;3.6;;;;;;;;;;;;;
2019/10/04 08:40:36;;;;;;;5.2;3.2;;;;;;;;;;;;;
2019/10/04 08:43:01;;;;;;;6.4;3.5;;;;;;;;;;;;;
2019/10/04 08:45:26;;;;;;;6;3.8;;;;;;;;;;;;;
2019/10/04 08:47:51;;;;;;;4.8;3.2;;;;;;;;;;;;;
2019/10/04 08:50:16;;;;;;;4.5;3.2;;;;;;;;;;;;;
2019/10/04 08:52:41;;;;;;;4.4;3.1;;;;;;;;;;;;;
2019/10/04 08:55:06;;;;;;;5.1;2.8;;;;;;;;;;;;;
2019/10/04 08:57:32;;;;;;;3.9;2.7;;;;;;;;;;;;;
2019/10/04 08:59:57;;;;;;;4.6;2.6;;;;;;;;;;;;;
2019/10/04 09:02:22;;;;;;;4.3;2.6;;;;;;;;;;;;;
2019/10/04 09:04:47;;;;;;;3.9;2.4;;;;;;;;;;;;;
2019/10/04 09:07:12;;;;;;;5.5;2.6;;;;;;;;;;;;;
2019/10/04 09:09:37;;;;;;;3.3;2.2;;;;;;;;;;;;;
2019/10/04 09:12:02;;;;;;;3.8;2.3;;;;;;;;;;;;;
2019/10/04 09:14:27;;;;;;;3.1;2.2;;;;;;;;;;;;;
2019/10/04 09:16:52;;;;;;;6;2.2;;;;;;;;;;;;;
2019/10/04 09:19:18;;;;;;;3.2;2;;;;;;;;;;;;;
2019/10/04 09:21:43;;;;;;;5.2;2.3;;;;;;;;;;;;;
2019/10/04 09:24:08;;;;;;;3.3;2;;;;;;;;;;;;;
2019/10/04 09:26:33;;;;;;;3;1.9;;;;;;;;;;;;;
2019/10/04 09:28:58;;;;;;;3.6;2.2;;;;;;;;;;;;;
2019/10/04 09:31:23;;;;;;;3.3;2;;;;;;;;;;;;;
2019/10/04 09:33:48;;;;;;;3.2;2.1;;;;;;;;;;;;;
2019/10/04 09:36:13;;;;;;;3.3;2.2;;;;;;;;;;;;;
2019/10/04 09:38:38;;;;;;;7;2.4;;;;;;;;;;;;;
2019/10/04 09:41:03;;;;;;;3.8;2.4;;;;;;;;;;;;;
2019/10/04 09:43:29;;;;;;;4.2;2.6;;;;;;;;;;;;;
2019/10/04 09:45:54;;;;;;;8.4;2.8;;;;;;;;;;;;;
2019/10/04 09:50:44;;;;;;;3.9;2.7;;;;;;;;;;;;;
2019/10/04 09:53:09;;;;;;;5.3;2.4;;;;;;;;;;;;;
2019/10/04 09:55:34;;;;;;;3.7;2.6;;;;;;;;;;;;;
2019/10/04 09:57:59;;;;;;;7.4;3.7;;;;;;;;;;;;;
2019/10/04 10:00:24;;;;;;;4.3;2.8;;;;;;;;;;;;;
2019/10/04 10:02:49;;;;;;;4.1;2.7;;;;;;;;;;;;;
2019/10/04 10:05:15;;;;;;;5.8;3;;;;;;;;;;;;;
2019/10/04 10:07:40;;;;;;;6.2;3.1;;;;;;;;;;;;;
2019/10/04 10:10:05;;;;;;;4.5;2.7;;;;;;;;;;;;;
2019/10/04 10:12:30;;;;;;;4.3;3.3;;;;;;;;;;;;;
2019/10/04 10:14:55;;;;;;;4.6;2.9;;;;;;;;;;;;;
2019/10/04 10:17:20;;;;;;;4.3;2.9;;;;;;;;;;;;;
2019/10/04 10:19:45;;;;;;;5.1;3;;;;;;;;;;;;;
2019/10/04 10:22:10;;;;;;;5.7;3.3;;;;;;;;;;;;;
2019/10/04 10:24:35;;;;;;;4.5;3.3;;;;;;;;;;;;;
2019/10/04 10:27:01;;;;;;;5.9;3.3;;;;;;;;;;;;;
2019/10/04 10:29:26;;;;;;;5.8;3;;;;;;;;;;;;;
2019/10/04 10:31:51;;;;;;;9.5;3.4;;;;;;;;;;;;;
2019/10/04 10:34:16;;;;;;;6.4;3.8;;;;;;;;;;;;;
2019/10/04 10:36:41;;;;;;;6.6;3.4;;;;;;;;;;;;;
2019/10/04 10:39:08;;;;;;;6.5;3.5;;;;;;;;;;;;;
2019/10/04 10:41:31;;;;;;;4.5;3.2;;;;;;;;;;;;;
2019/10/04 10:43:56;;;;;;;3.9;3.2;;;;;;;;;;;;;
2019/10/04 10:46:21;;;;;;;5.8;3.4;;;;;;;;;;;;;
2019/10/04 10:48:46;;;;;;;4.7;3;;;;;;;;;;;;;
2019/10/04 10:51:11;;;;;;;3.7;2.6;;;;;;;;;;;;;
2019/10/04 10:53:36;;;;;;;2.6;2;;;;;;;;;;;;;
2019/10/04 10:56:02;;;;;;;4.2;2.3;;;;;;;;;;;;;
2019/10/04 10:58:27;;;;;;;3.9;2.1;;;;;;;;;;;;;
2019/10/04 11:00:52;;;;;;;3.3;2;;;;;;;;;;;;;
2019/10/04 11:03:17;;;;;;;2.6;2.1;;;;;;;;;;;;;
2019/10/04 11:05:42;;;;;;;3.8;1.7;;;;;;;;;;;;;
2019/10/04 11:08:07;;;;;;;4.1;2;;;;;;;;;;;;;
2019/10/04 11:10:32;;;;;;;2.2;1.5;;;;;;;;;;;;;
2019/10/04 11:12:57;;;;;;;3.1;1.8;;;;;;;;;;;;;
2019/10/04 11:15:22;;;;;;;3.3;1.4;;;;;;;;;;;;;
2019/10/04 11:17:47;;;;;;;3.2;1.6;;;;;;;;;;;;;
2019/10/04 11:20:12;;;;;;;2;1.6;;;;;;;;;;;;;
2019/10/04 11:22:37;;;;;;;3.6;1.6;;;;;;;;;;;;;
2019/10/04 11:25:02;;;;;;;2.3;1.4;;;;;;;;;;;;;
2019/10/04 11:27:27;;;;;;;3.6;1.6;;;;;;;;;;;;;
2019/10/04 11:29:53;;;;;;;3.2;1.6;;;;;;;;;;;;;
2019/10/04 11:32:18;;;;;;;3.3;1.6;;;;;;;;;;;;;
2019/10/04 11:34:43;;;;;;;5.5;1.6;;;;;;;;;;;;;
2019/10/04 11:37:08;;;;;;;3.6;1.6;;;;;;;;;;;;;
2019/10/04 11:39:33;;;;;;;4.1;1.7;;;;;;;;;;;;;
2019/10/04 11:41:58;;;;;;;2.4;1.6;;;;;;;;;;;;;
2019/10/04 11:44:23;;;;;;;3.1;1.5;;;;;;;;;;;;;
2019/10/04 11:46:48;;;;;;;2.7;1.5;;;;;;;;;;;;;
2019/10/04 11:49:13;;;;;;;2.9;1.7;;;;;;;;;;;;;
2019/10/04 11:51:38;;;;;;;2.3;1.5;;;;;;;;;;;;;
2019/10/04 11:54:03;;;;;;;2.4;1.5;;;;;;;;;;;;;
2019/10/04 11:56:29;;;;;;;2.6;1.6;;;;;;;;;;;;;
2019/10/04 11:58:54;;;;;;;3.3;1.3;;;;;;;;;;;;;
2019/10/04 12:01:19;;;;;;;4.2;1.3;;;;;;;;;;;;;
2019/10/04 12:03:44;;;;;;;2.8;1.4;;;;;;;;;;;;;
2019/10/04 12:06:09;;;;;;;3;1.6;;;;;;;;;;;;;
2019/10/04 12:08:34;;;;;;;2.9;1.5;;;;;;;;;;;;;
2019/10/04 12:10:59;;;;;;;2.5;1.4;;;;;;;;;;;;;
2019/10/04 12:13:24;;;;;;;3.2;1.3;;;;;;;;;;;;;
2019/10/04 12:15:50;;;;;;;2.2;1.3;;;;;;;;;;;;;
2019/10/04 12:18:15;;;;;;;1.5;1.1;;;;;;;;;;;;;
2019/10/04 12:20:40;;;;;;;2.3;1.2;;;;;;;;;;;;;
2019/10/04 12:23:05;;;;;;;2.6;1.3;;;;;;;;;;;;;
2019/10/04 12:25:30;;;;;;;1.9;1.3;;;;;;;;;;;;;
2019/10/04 12:27:55;;;;;;;2.3;1.3;;;;;;;;;;;;;
2019/10/04 12:30:20;;;;;;;2.2;1.3;;;;;;;;;;;;;
2019/10/04 12:32:45;;;;;;;2.2;1.3;;;;;;;;;;;;;
2019/10/04 12:35:10;;;;;;;1.9;1.3;;;;;;;;;;;;;
2019/10/04 12:37:36;;;;;;;2.7;1.3;;;;;;;;;;;;;
2019/10/04 12:40:01;;;;;;;2.5;1.6;;;;;;;;;;;;;
2019/10/04 12:42:26;;;;;;;2.6;1.4;;;;;;;;;;;;;
2019/10/04 12:44:51;;;;;;;3.2;1.3;;;;;;;;;;;;;
2019/10/04 12:47:16;;;;;;;2.1;1.1;;;;;;;;;;;;;
2019/10/04 12:49:41;;;;;;;2.3;1.3;;;;;;;;;;;;;
2019/10/04 12:52:06;;;;;;;3;1.4;;;;;;;;;;;;;
2019/10/04 12:54:32;;;;;;;1.5;1.1;;;;;;;;;;;;;
2019/10/04 12:56:57;;;;;;;2.6;1.1;;;;;;;;;;;;;
2019/10/04 12:59:22;;;;;;;1.6;1.2;;;;;;;;;;;;;
2019/10/04 13:01:47;;;;;;;2.7;1.1;;;;;;;;;;;;;
2019/10/04 13:04:12;;;;;;;2.4;1.1;;;;;;;;;;;;;
2019/10/04 13:06:37;;;;;;;1.8;1.3;;;;;;;;;;;;;
2019/10/04 13:09:03;;;;;;;3.4;1.1;;;;;;;;;;;;;
2019/10/04 13:11:27;;;;;;;1.5;1.1;;;;;;;;;;;;;
2019/10/04 13:13:52;;;;;;;2.3;1.2;;;;;;;;;;;;;
2019/10/04 13:16:17;;;;;;;1.8;1.2;;;;;;;;;;;;;
2019/10/04 13:18:43;;;;;;;3.4;1.3;;;;;;;;;;;;;
2019/10/04 13:21:08;;;;;;;2.5;1.2;;;;;;;;;;;;;
2019/10/04 13:23:33;;;;;;;2;1.2;;;;;;;;;;;;;
2019/10/04 13:25:58;;;;;;;2.1;1;;;;;;;;;;;;;
2019/10/04 13:28:23;;;;;;;3;1.4;;;;;;;;;;;;;
2019/10/04 13:30:48;;;;;;;1.7;1.1;;;;;;;;;;;;;
2019/10/04 13:33:13;;;;;;;2.2;1.4;;;;;;;;;;;;;
2019/10/04 13:35:38;;;;;;;1.9;1.2;;;;;;;;;;;;;
2019/10/04 13:38:03;;;;;;;1.5;1.2;;;;;;;;;;;;;
2019/10/04 13:40:29;;;;;;;1.8;1.6;;;;;;;;;;;;;
2019/10/04 13:42:54;;;;;;;2.2;1.4;;;;;;;;;;;;;
2019/10/04 13:45:19;;;;;;;2;1.2;;;;;;;;;;;;;
2019/10/04 13:47:44;;;;;;;2.6;1.2;;;;;;;;;;;;;
2019/10/04 13:50:09;;;;;;;4.3;1.3;;;;;;;;;;;;;
2019/10/04 13:52:35;;;;;;;1.8;1.2;;;;;;;;;;;;;
2019/10/04 13:55:00;;;;;;;2.2;1.1;;;;;;;;;;;;;
2019/10/04 13:57:25;;;;;;;2.9;1.3;;;;;;;;;;;;;
2019/10/04 13:59:50;;;;;;;3.1;1.3;;;;;;;;;;;;;
2019/10/04 14:02:15;;;;;;;1.6;1.2;;;;;;;;;;;;;
2019/10/04 14:04:40;;;;;;;1.7;1.2;;;;;;;;;;;;;
2019/10/04 14:07:05;;;;;;;2.1;1.2;;;;;;;;;;;;;
2019/10/04 14:09:30;;;;;;;1.5;1.2;;;;;;;;;;;;;
2019/10/04 14:11:55;;;;;;;2.2;1.5;;;;;;;;;;;;;
2019/10/04 14:14:20;;;;;;;2.3;1.5;;;;;;;;;;;;;
2019/10/04 14:16:45;;;;;;;1.7;1.2;;;;;;;;;;;;;
2019/10/04 14:19:11;;;;;;;1.8;1.2;;;;;;;;;;;;;
2019/10/04 14:21:36;;;;;;;1.2;1.1;;;;;;;;;;;;;
2019/10/04 14:24:01;;;;;;;1.6;1;;;;;;;;;;;;;
2019/10/04 14:26:26;;;;;;;2.6;1.7;;;;;;;;;;;;;
2019/10/04 14:28:51;;;;;;;1.4;1.1;;;;;;;;;;;;;
2019/10/04 14:31:16;;;;;;;1.8;1.6;;;;;;;;;;;;;
2019/10/04 14:33:41;;;;;;;2.6;1.3;;;;;;;;;;;;;
2019/10/04 14:36:06;;;;;;;3.1;1.3;;;;;;;;;;;;;
2019/10/04 14:38:31;;;;;;;2.5;1.4;;;;;;;;;;;;;
2019/10/04 14:40:56;;;;;;;1.8;1.5;;;;;;;;;;;;;
2019/10/04 14:43:21;;;;;;;2.2;1.5;;;;;;;;;;;;;
2019/10/04 14:45:47;;;;;;;2.4;1.5;;;;;;;;;;;;;
2019/10/04 14:48:12;;;;;;;2.9;1.5;;;;;;;;;;;;;
2019/10/04 14:50:37;;;;;;;2;1.3;;;;;;;;;;;;;
2019/10/04 14:53:02;;;;;;;3;1.6;;;;;;;;;;;;;
2019/10/04 14:55:27;;;;;;;2.1;1.5;;;;;;;;;;;;;
2019/10/04 14:57:52;;;;;;;2.3;1.7;;;;;;;;;;;;;
2019/10/04 15:00:17;;;;;;;2.6;1.6;;;;;;;;;;;;;
2019/10/04 15:02:42;;;;;;;1.9;1.7;;;;;;;;;;;;;
2019/10/04 15:05:07;;;;;;;3.1;1.7;;;;;;;;;;;;;
2019/10/04 15:07:32;;;;;;;2.5;1.6;;;;;;;;;;;;;
2019/10/04 15:09:57;;;;;;;2.7;1.5;;;;;;;;;;;;;
2019/10/04 15:12:23;;;;;;;1.9;1.5;;;;;;;;;;;;;
2019/10/04 15:14:48;;;;;;;2.1;1.5;;;;;;;;;;;;;
2019/10/04 15:17:13;;;;;;;2.8;1.6;;;;;;;;;;;;;
2019/10/04 15:19:38;;;;;;;2.3;1.5;;;;;;;;;;;;;
2019/10/04 15:22:03;;;;;;;2;1.2;;;;;;;;;;;;;
2019/10/04 15:24:28;;;;;;;1.7;1.4;;;;;;;;;;;;;
2019/10/04 15:26:53;;;;;;;1.5;1.4;;;;;;;;;;;;;
2019/10/04 15:29:19;;;;;;;2.7;1.2;;;;;;;;;;;;;
2019/10/04 15:31:43;;;;;;;3.8;1.6;;;;;;;;;;;;;
2019/10/04 15:34:08;;;;;;;2.7;1.4;;;;;;;;;;;;;
2019/10/04 15:36:33;;;;;;;1.7;1.1;;;;;;;;;;;;;
2019/10/04 15:38:59;;;;;;;2.5;1.3;;;;;;;;;;;;;
2019/10/04 15:41:24;;;;;;;2;1.2;;;;;;;;;;;;;
2019/10/04 15:43:49;;;;;;;1.4;1.3;;;;;;;;;;;;;
2019/10/04 15:46:14;;;;;;;1.7;1.2;;;;;;;;;;;;;
2019/10/04 15:48:39;;;;;;;1.9;1.2;;;;;;;;;;;;;
2019/10/04 15:51:04;;;;;;;2;1.1;;;;;;;;;;;;;
2019/10/04 15:53:29;;;;;;;1.8;1.4;;;;;;;;;;;;;
2019/10/04 15:55:54;;;;;;;2.3;1.3;;;;;;;;;;;;;
2019/10/04 15:58:19;;;;;;;1.8;1.3;;;;;;;;;;;;;
2019/10/04 16:00:44;;;;;;;1.9;1.1;;;;;;;;;;;;;
2019/10/04 16:03:09;;;;;;;3;1.5;;;;;;;;;;;;;
2019/10/04 16:05:34;;;;;;;1.7;1.3;;;;;;;;;;;;;
2019/10/04 16:08:00;;;;;;;1.9;1.2;;;;;;;;;;;;;
2019/10/04 16:10:25;;;;;;;3.1;1.4;;;;;;;;;;;;;
2019/10/04 16:12:50;;;;;;;1.7;1.4;;;;;;;;;;;;;
2019/10/04 16:15:15;;;;;;;1.5;1.3;;;;;;;;;;;;;
2019/10/04 16:17:40;;;;;;;2;1.4;;;;;;;;;;;;;
2019/10/04 16:20:15;;;;;;;1.9;1.4;;;;;;;;;;;;;
2019/10/04 16:22:30;;;;;;;1.9;1.6;;;;;;;;;;;;;
2019/10/04 16:24:55;;;;;;;2.7;1.7;;;;;;;;;;;;;
2019/10/04 16:27:20;;;;;;;2;1.7;;;;;;;;;;;;;
2019/10/04 16:29:45;;;;;;;3;1.6;;;;;;;;;;;;;
2019/10/04 16:32:10;;;;;;;2.5;1.7;;;;;;;;;;;;;
2019/10/04 16:34:35;;;;;;;2.6;1.6;;;;;;;;;;;;;
2019/10/04 16:37:01;;;;;;;2.2;1.7;;;;;;;;;;;;;
2019/10/04 16:39:26;;;;;;;2.2;1.8;;;;;;;;;;;;;
2019/10/04 16:41:51;;;;;;;2.3;1.5;;;;;;;;;;;;;
2019/10/04 16:44:16;;;;;;;1.9;1.7;;;;;;;;;;;;;
2019/10/04 16:46:41;;;;;;;2.1;1.5;;;;;;;;;;;;;
2019/10/04 16:49:06;;;;;;;2;1.5;;;;;;;;;;;;;
2019/10/04 16:51:38;;;;;;;2.8;1.9;;;;;;;;;;;;;
2019/10/04 16:54:01;;;;;;;3.5;1.7;;;;;;;;;;;;;
2019/10/04 16:56:22;;;;;;;2.1;1.7;;;;;;;;;;;;;
2019/10/04 16:58:46;;;;;;;2.2;1.6;;;;;;;;;;;;;
2019/10/04 17:01:12;;;;;;;2.4;1.9;;;;;;;;;;;;;
2019/10/04 17:03:37;;;;;;;2.9;2;;;;;;;;;;;;;
2019/10/04 17:06:02;;;;;;;3.3;1.8;;;;;;;;;;;;;
2019/10/04 17:08:27;;;;;;;2.5;1.9;;;;;;;;;;;;;
2019/10/04 17:10:52;;;;;;;2.9;1.8;;;;;;;;;;;;;
2019/10/04 17:13:17;;;;;;;2.7;1.8;;;;;;;;;;;;;
2019/10/04 17:15:42;;;;;;;2.7;2;;;;;;;;;;;;;
2019/10/04 17:18:07;;;;;;;2.1;1.6;;;;;;;;;;;;;
2019/10/04 17:20:32;;;;;;;2.9;1.8;;;;;;;;;;;;;
2019/10/04 17:22:57;;;;;;;2.2;1.7;;;;;;;;;;;;;
2019/10/04 17:25:22;;;;;;;2.5;1.9;;;;;;;;;;;;;
2019/10/04 17:27:48;;;;;;;2.7;1.9;;;;;;;;;;;;;
2019/10/04 17:30:13;;;;;;;2.3;1.9;;;;;;;;;;;;;
2019/10/04 17:32:38;;;;;;;2.9;1.9;;;;;;;;;;;;;
2019/10/04 17:35:03;;;;;;;3;2;;;;;;;;;;;;;
2019/10/04 17:37:28;;;;;;;3.6;1.9;;;;;;;;;;;;;
2019/10/04 17:39:53;;;;;;;3.1;2.1;;;;;;;;;;;;;
2019/10/04 17:42:18;;;;;;;2.3;2;;;;;;;;;;;;;
2019/10/04 17:44:43;;;;;;;3.4;2.1;;;;;;;;;;;;;
2019/10/04 17:47:08;;;;;;;2.7;2;;;;;;;;;;;;;
2019/10/04 17:49:33;;;;;;;2.7;2.2;;;;;;;;;;;;;
2019/10/04 17:51:58;;;;;;;3.1;2;;;;;;;;;;;;;
2019/10/04 17:54:23;;;;;;;3.4;2.1;;;;;;;;;;;;;
2019/10/04 17:56:49;;;;;;;2.4;2.2;;;;;;;;;;;;;
2019/10/04 17:59:14;;;;;;;3.6;2.2;;;;;;;;;;;;;
2019/10/04 18:01:39;;;;;;;3.1;2.4;;;;;;;;;;;;;
2019/10/04 18:04:04;;;;;;;2.3;1.9;;;;;;;;;;;;;
2019/10/04 18:06:29;;;;;;;2.8;2.1;;;;;;;;;;;;;
2019/10/04 18:08:54;;;;;;;2.9;2.3;;;;;;;;;;;;;
2019/10/04 18:11:19;;;;;;;3.1;2.1;;;;;;;;;;;;;
2019/10/04 18:13:44;;;;;;;3.3;2.4;;;;;;;;;;;;;
2019/10/04 18:16:09;;;;;;;3;2.4;;;;;;;;;;;;;
2019/10/04 18:18:42;;;;;;;4;2.7;;;;;;;;;;;;;
2019/10/04 18:23:25;;;;;;;2.8;2.2;;;;;;;;;;;;;
2019/10/04 18:25:50;;;;;;;3.8;2.4;;;;;;;;;;;;;
2019/10/04 18:28:15;;;;;;;3;2.4;;;;;;;;;;;;;
2019/10/04 18:30:40;;;;;;;3.6;2.8;;;;;;;;;;;;;
2019/10/04 18:33:05;;;;;;;3.5;2.5;;;;;;;;;;;;;
2019/10/04 18:35:30;;;;;;;2.9;2.4;;;;;;;;;;;;;
2019/10/04 18:37:56;;;;;;;3.9;2.6;;;;;;;;;;;;;
2019/10/04 18:40:21;;;;;;;4.4;2.4;;;;;;;;;;;;;
2019/10/04 18:42:46;;;;;;;2.7;2;;;;;;;;;;;;;
2019/10/04 18:45:11;;;;;;;2.7;2.3;;;;;;;;;;;;;
2019/10/04 18:47:36;;;;;;;3.3;2.4;;;;;;;;;;;;;
2019/10/04 18:50:01;;;;;;;3.2;2.3;;;;;;;;;;;;;
2019/10/04 18:52:26;;;;;;;3.6;2.5;;;;;;;;;;;;;
2019/10/04 18:54:51;;;;;;;3.1;2.3;;;;;;;;;;;;;
2019/10/04 18:57:16;;;;;;;3.6;2.4;;;;;;;;;;;;;
2019/10/04 18:59:41;;;;;;;3.4;2.3;;;;;;;;;;;;;
2019/10/04 19:02:06;;;;;;;2.6;2.2;;;;;;;;;;;;;
2019/10/04 19:04:32;;;;;;;2.1;1.9;;;;;;;;;;;;;
2019/10/04 19:06:57;;;;;;;3.1;2.3;;;;;;;;;;;;;
2019/10/04 19:09:22;;;;;;;3.7;2.6;;;;;;;;;;;;;
2019/10/04 19:11:47;;;;;;;3;2.4;;;;;;;;;;;;;
2019/10/04 19:14:12;;;;;;;4.7;2.5;;;;;;;;;;;;;
2019/10/04 19:16:37;;;;;;;4.1;2.6;;;;;;;;;;;;;
2019/10/04 19:19:02;;;;;;;3.7;2.3;;;;;;;;;;;;;
2019/10/04 19:21:27;;;;;;;3.6;2.3;;;;;;;;;;;;;
2019/10/04 19:23:52;;;;;;;4.1;2.2;;;;;;;;;;;;;
2019/10/04 19:26:18;;;;;;;4.1;1.9;;;;;;;;;;;;;
2019/10/04 19:28:43;;;;;;;2.6;1.9;;;;;;;;;;;;;
2019/10/04 19:31:08;;;;;;;2.6;1.6;;;;;;;;;;;;;
2019/10/04 19:33:33;;;;;;;4.7;2.1;;;;;;;;;;;;;
2019/10/04 19:35:58;;;;;;;4;1.8;;;;;;;;;;;;;
2019/10/04 19:38:23;;;;;;;4;2.1;;;;;;;;;;;;;
2019/10/04 19:40:48;;;;;;;5.3;2.6;;;;;;;;;;;;;
2019/10/04 19:43:14;;;;;;;4.2;2.1;;;;;;;;;;;;;
2019/10/04 19:45:38;;;;;;;5.1;2.1;;;;;;;;;;;;;
2019/10/04 19:48:03;;;;;;;4.7;1.9;;;;;;;;;;;;;
2019/10/04 19:50:28;;;;;;;6.2;3.3;;;;;;;;;;;;;
2019/10/04 19:52:54;;;;;;;4.1;2.2;;;;;;;;;;;;;
2019/10/04 19:55:19;;;;;;;3.7;1.8;;;;;;;;;;;;;
2019/10/04 19:57:51;;;;;;;5.9;2.5;;;;;;;;;;;;;
2019/10/04 20:00:09;;;;;;;4.4;2;;;;;;;;;;;;;
2019/10/04 20:02:34;;;;;;;5.2;2.1;;;;;;;;;;;;;
2019/10/04 20:04:59;;;;;;;5.5;2.2;;;;;;;;;;;;;
2019/10/04 20:07:24;;;;;;;7.7;2.8;;;;;;;;;;;;;
2019/10/04 20:09:49;;;;;;;4.8;1.8;;;;;;;;;;;;;
2019/10/04 20:12:14;;;;;;;5.4;2.3;;;;;;;;;;;;;
2019/10/04 20:14:39;;;;;;;6.8;3.4;;;;;;;;;;;;;
2019/10/04 20:17:05;;;;;;;6.2;1.8;;;;;;;;;;;;;
2019/10/04 20:19:30;;;;;;;6.9;2;;;;;;;;;;;;;
2019/10/04 20:21:55;;;;;;;5;2;;;;;;;;;;;;;
2019/10/04 20:24:20;;;;;;;5.3;1.9;;;;;;;;;;;;;
2019/10/04 20:26:45;;;;;;;6.7;2.1;;;;;;;;;;;;;
2019/10/04 20:29:10;;;;;;;6.4;2;;;;;;;;;;;;;
2019/10/04 20:31:35;;;;;;;6.5;2.1;;;;;;;;;;;;;
2019/10/04 20:34:00;;;;;;;6.3;2.3;;;;;;;;;;;;;
2019/10/04 20:36:25;;;;;;;5.9;2.1;;;;;;;;;;;;;
2019/10/04 20:38:50;;;;;;;5.3;2;;;;;;;;;;;;;
2019/10/04 20:41:16;;;;;;;7.3;1.9;;;;;;;;;;;;;